createdAt,value
2019-01-19T00:01:45.100Z,2.62
2019-01-19T00:04:26.135Z,2.75
2019-01-19T00:07:07.025Z,2.72
2019-01-19T00:09:48.448Z,2.00
2019-01-19T00:15:34.295Z,3.05
2019-01-19T00:18:15.600Z,2.05
2019-01-19T00:20:56.219Z,2.20
2019-01-19T00:23:36.987Z,2.12
2019-01-19T00:26:18.708Z,2.92
2019-01-19T00:28:59.412Z,3.27
2019-01-19T00:34:46.264Z,2.02
2019-01-19T00:37:27.046Z,4.12
2019-01-19T00:40:08.719Z,3.27
2019-01-19T00:42:49.728Z,2.87
2019-01-19T00:45:30.814Z,4.20
2019-01-19T00:48:11.444Z,2.47
2019-01-19T00:51:11.451Z,2.67
2019-01-19T00:53:52.956Z,2.95
2019-01-19T00:56:33.644Z,3.62
2019-01-19T00:59:14.495Z,3.08
2019-01-19T01:01:55.527Z,4.75
2019-01-19T01:04:36.828Z,3.25
2019-01-19T01:07:17.811Z,2.40
2019-01-19T01:09:58.279Z,3.98
2019-01-19T01:12:38.834Z,1.80
2019-01-19T01:15:19.581Z,1.75
2019-01-19T01:18:00.953Z,2.27
2019-01-19T01:20:42.412Z,3.27
2019-01-19T01:23:23.903Z,2.17
2019-01-19T01:26:04.756Z,2.87
2019-01-19T01:28:46.232Z,2.02
2019-01-19T01:31:27.227Z,3.37
2019-01-19T01:34:08.301Z,3.65
2019-01-19T01:36:49.512Z,2.85
2019-01-19T01:39:30.464Z,2.87
2019-01-19T01:42:11.380Z,2.27
2019-01-19T01:44:52.412Z,2.90
2019-01-19T01:47:33.115Z,2.17
2019-01-19T01:50:14.899Z,3.17
2019-01-19T01:52:56.051Z,2.00
2019-01-19T01:55:37.240Z,2.85
2019-01-19T01:58:18.582Z,2.00
2019-01-19T02:00:59.777Z,2.75
2019-01-19T02:03:40.916Z,1.65
2019-01-19T02:06:22.731Z,1.35
2019-01-19T02:09:05.535Z,2.95
2019-01-19T02:11:46.516Z,1.60
2019-01-19T02:14:27.020Z,2.47
2019-01-19T02:17:07.939Z,3.25
2019-01-19T02:19:48.804Z,3.08
2019-01-19T02:22:30.156Z,1.47
2019-01-19T02:25:24.580Z,3.35
2019-01-19T02:28:17.476Z,1.70
2019-01-19T02:31:25.060Z,1.98
2019-01-19T02:34:32.770Z,2.65
2019-01-19T02:37:40.681Z,1.52
2019-01-19T02:40:48.286Z,2.00
2019-01-19T02:43:51.077Z,1.62
2019-01-19T02:49:49.470Z,1.90
2019-01-19T02:52:57.116Z,2.62
2019-01-19T02:56:04.535Z,1.35
2019-01-19T02:59:12.218Z,2.95
2019-01-19T03:02:20.157Z,3.08
2019-01-19T03:05:01.416Z,2.50
2019-01-19T03:07:42.218Z,1.55
2019-01-19T03:10:23.424Z,2.67
2019-01-19T03:13:04.911Z,3.12
2019-01-19T03:15:45.656Z,3.40
2019-01-19T03:18:27.028Z,1.57
2019-01-19T03:21:08.289Z,2.90
2019-01-19T03:23:49.568Z,2.77
2019-01-19T03:26:30.621Z,1.85
2019-01-19T03:29:15.033Z,3.10
2019-01-19T03:31:56.328Z,1.90
2019-01-19T03:34:37.223Z,2.02
2019-01-19T03:37:18.715Z,2.45
2019-01-19T03:40:00.007Z,1.90
2019-01-19T03:42:41.040Z,2.37
2019-01-19T03:45:22.431Z,2.33
2019-01-19T03:48:24.104Z,1.50
2019-01-19T03:51:31.731Z,1.72
2019-01-19T03:54:27.181Z,2.60
2019-01-19T03:57:34.832Z,1.70
2019-01-19T04:00:42.445Z,1.62
2019-01-19T04:03:50.156Z,1.70
2019-01-19T04:06:57.757Z,2.58
2019-01-19T04:10:05.432Z,2.72
2019-01-19T04:13:13.016Z,1.92
2019-01-19T04:16:20.907Z,3.37
2019-01-19T04:19:28.217Z,2.17
2019-01-19T04:22:36.103Z,2.75
2019-01-19T04:25:44.065Z,3.27
2019-01-19T04:28:32.625Z,2.52
2019-01-19T04:34:51.475Z,2.75
2019-01-19T04:37:39.727Z,3.62
2019-01-19T04:40:28.685Z,1.95
2019-01-19T04:43:17.751Z,1.15
2019-01-19T04:46:06.285Z,1.92
2019-01-19T04:48:55.265Z,2.30
2019-01-19T04:51:43.511Z,4.08
2019-01-19T04:57:21.040Z,2.15
2019-01-19T05:03:25.912Z,2.30
2019-01-19T05:06:12.043Z,1.90
2019-01-19T05:08:49.147Z,1.30
2019-01-19T05:11:30.868Z,2.40
2019-01-19T05:14:12.256Z,2.00
2019-01-19T05:16:53.515Z,2.98
2019-01-19T05:19:35.205Z,3.20
2019-01-19T05:22:16.752Z,2.67
2019-01-19T05:24:58.319Z,2.37
2019-01-19T05:27:39.796Z,2.45
2019-01-19T05:30:21.447Z,1.82
2019-01-19T05:33:02.136Z,2.33
2019-01-19T05:35:43.716Z,2.35
2019-01-19T05:38:24.842Z,1.75
2019-01-19T05:41:05.589Z,2.12
2019-01-19T05:43:46.551Z,5.00
2019-01-19T05:46:27.950Z,1.52
2019-01-19T05:49:09.377Z,2.02
2019-01-19T05:51:50.099Z,1.37
2019-01-19T05:57:12.863Z,1.75
2019-01-19T05:59:54.215Z,2.42
2019-01-19T06:02:35.300Z,3.02
2019-01-19T06:05:15.778Z,1.32
2019-01-19T06:07:56.793Z,2.70
2019-01-19T06:10:38.303Z,2.75
2019-01-19T06:13:19.569Z,1.98
2019-01-19T06:15:49.303Z,1.98
2019-01-19T06:24:31.955Z,2.37
2019-01-19T06:27:20.203Z,3.60
2019-01-19T06:30:10.768Z,1.50
2019-01-19T06:32:59.431Z,1.55
2019-01-19T06:36:05.512Z,4.30
2019-01-19T06:38:54.033Z,3.20
2019-01-19T06:44:54.279Z,3.67
2019-01-19T06:47:42.531Z,4.00
2019-01-19T06:57:11.611Z,4.33
2019-01-19T07:00:00.270Z,2.90
2019-01-19T07:02:49.087Z,1.25
2019-01-19T07:05:37.571Z,2.75
2019-01-19T07:08:25.828Z,1.95
2019-01-19T07:14:45.391Z,2.52
2019-01-19T07:17:34.000Z,0.90
2019-01-19T07:20:23.794Z,2.85
2019-01-19T07:23:12.128Z,2.15
2019-01-19T07:26:01.038Z,2.67
2019-01-19T07:28:30.444Z,2.00
2019-01-19T07:31:19.263Z,2.05
2019-01-19T07:34:06.330Z,1.85
2019-01-19T07:36:54.969Z,1.90
2019-01-19T07:39:43.194Z,2.25
2019-01-19T07:42:31.535Z,2.85
2019-01-19T07:45:20.070Z,2.75
2019-01-19T07:48:08.954Z,2.25
2019-01-19T07:50:57.166Z,5.28
2019-01-19T07:53:45.779Z,1.60
2019-01-19T07:56:15.332Z,2.75
2019-01-19T07:59:03.747Z,3.40
2019-01-19T08:02:10.140Z,2.25
2019-01-19T08:04:58.718Z,2.90
2019-01-19T08:07:47.318Z,2.40
2019-01-19T08:10:54.719Z,1.75
2019-01-19T08:13:43.253Z,3.80
2019-01-19T08:16:31.543Z,1.95
2019-01-19T08:19:20.176Z,4.42
2019-01-19T08:22:08.515Z,2.08
2019-01-19T08:24:56.754Z,2.50
2019-01-19T08:27:45.362Z,2.08
2019-01-19T08:30:34.428Z,2.55
2019-01-19T08:33:22.719Z,2.72
2019-01-19T08:42:19.391Z,2.67
2019-01-19T08:45:08.316Z,2.72
2019-01-19T08:47:49.502Z,3.65
2019-01-19T08:53:37.791Z,3.40
2019-01-19T09:00:11.951Z,2.55
2019-01-19T09:03:00.754Z,2.55
2019-01-19T09:05:49.736Z,3.20
2019-01-19T09:08:38.587Z,4.78
2019-01-19T09:11:26.811Z,2.33
2019-01-19T09:14:15.151Z,3.15
2019-01-19T09:17:03.371Z,4.20
2019-01-19T09:23:30.583Z,2.98
2019-01-19T09:26:18.883Z,2.95
2019-01-19T09:33:16.515Z,3.10
2019-01-19T09:39:47.298Z,2.30
2019-01-19T09:42:35.530Z,3.42
2019-01-19T09:45:24.439Z,3.08
2019-01-19T09:48:12.695Z,1.75
2019-01-19T09:50:42.129Z,3.02
2019-01-19T09:53:30.448Z,3.02
2019-01-19T09:56:18.939Z,3.25
2019-01-19T09:59:43.967Z,2.27
2019-01-19T10:02:32.874Z,3.75
2019-01-19T10:05:40.657Z,2.55
2019-01-19T10:08:29.311Z,1.32
2019-01-19T10:11:17.947Z,2.87
2019-01-19T10:14:06.284Z,3.05
2019-01-19T10:16:54.586Z,2.67
2019-01-19T10:19:42.840Z,2.95
2019-01-19T10:22:31.378Z,2.70
2019-01-19T10:25:19.710Z,3.60
2019-01-19T10:28:08.283Z,2.12
2019-01-19T10:34:26.853Z,3.65
2019-01-19T10:37:15.391Z,3.05
2019-01-19T10:40:04.076Z,1.70
2019-01-19T10:43:11.570Z,3.30
2019-01-19T10:45:52.463Z,2.90
2019-01-19T10:51:38.778Z,2.17
2019-01-19T10:54:20.268Z,2.35
2019-01-19T10:56:49.668Z,2.80
2019-01-19T10:59:38.288Z,1.45
2019-01-19T11:05:15.503Z,2.75
2019-01-19T11:11:12.958Z,2.00
2019-01-19T11:13:42.837Z,3.33
2019-01-19T11:16:31.863Z,3.08
2019-01-19T11:19:20.715Z,1.50
2019-01-19T11:22:09.272Z,3.12
2019-01-19T11:24:39.084Z,2.60
2019-01-19T11:28:03.793Z,2.62
2019-01-19T11:30:52.060Z,3.45
2019-01-19T11:33:40.543Z,2.95
2019-01-19T11:36:29.072Z,2.37
2019-01-19T11:39:17.365Z,2.45
2019-01-19T11:42:05.948Z,3.80
2019-01-19T11:44:54.203Z,3.37
2019-01-19T11:47:34.704Z,2.80
2019-01-19T11:50:15.360Z,3.25
2019-01-19T11:56:15.607Z,4.72
2019-01-19T11:58:56.783Z,2.72
2019-01-19T12:01:37.390Z,3.47
2019-01-19T12:04:18.051Z,2.17
2019-01-19T12:10:07.275Z,4.12
2019-01-19T12:12:48.939Z,2.27
2019-01-19T12:15:31.255Z,3.12
2019-01-19T12:18:12.783Z,2.17
2019-01-19T12:20:53.557Z,3.35
2019-01-19T12:26:17.143Z,2.62
2019-01-19T12:28:58.111Z,2.27
2019-01-19T12:31:39.505Z,3.52
2019-01-19T12:34:20.595Z,4.40
2019-01-19T12:37:01.531Z,3.40
2019-01-19T12:39:42.425Z,2.15
2019-01-19T12:42:11.746Z,3.67
2019-01-19T12:45:00.044Z,2.52
2019-01-19T12:47:48.403Z,3.60
2019-01-19T12:50:36.730Z,2.62
2019-01-19T12:56:34.952Z,3.12
2019-01-19T12:59:23.603Z,2.67
2019-01-19T13:05:47.839Z,5.22
2019-01-19T13:08:55.411Z,3.05
2019-01-19T13:12:02.787Z,1.92
2019-01-19T13:15:10.206Z,2.47
2019-01-19T13:18:20.615Z,2.90
2019-01-19T13:21:27.995Z,3.80
2019-01-19T13:24:52.740Z,3.72
2019-01-19T13:27:33.683Z,2.33
2019-01-19T13:30:15.067Z,2.60
2019-01-19T13:36:06.492Z,3.72
2019-01-19T13:38:46.972Z,2.35
2019-01-19T13:41:27.843Z,2.05
2019-01-19T13:44:09.104Z,3.62
2019-01-19T13:46:50.627Z,3.02
2019-01-19T13:50:20.803Z,2.45
2019-01-19T13:56:37.751Z,3.98
2019-01-19T13:59:29.518Z,2.42
2019-01-19T14:02:36.910Z,3.00
2019-01-19T14:05:38.411Z,2.52
2019-01-19T14:08:49.443Z,2.60
2019-01-19T14:18:42.299Z,3.37
2019-01-19T14:21:39.806Z,4.33
2019-01-19T14:27:50.623Z,1.85
2019-01-19T14:30:31.763Z,3.25
2019-01-19T14:33:12.592Z,2.70
2019-01-19T14:36:20.427Z,4.45
2019-01-19T14:39:28.083Z,2.87
2019-01-19T14:42:19.614Z,2.92
2019-01-19T14:45:27.199Z,3.15
2019-01-19T14:48:34.672Z,3.55
2019-01-19T14:51:42.147Z,2.55
2019-01-19T14:54:49.538Z,3.35
2019-01-19T14:57:56.955Z,2.60
2019-01-19T15:00:49.116Z,3.40
2019-01-19T15:03:56.494Z,2.83
2019-01-19T15:06:50.424Z,2.65
2019-01-19T15:09:57.807Z,3.47
2019-01-19T15:13:05.476Z,2.65
2019-01-19T15:15:46.775Z,1.22
2019-01-19T15:18:28.303Z,2.90
2019-01-19T15:21:09.184Z,2.85
2019-01-19T15:23:50.695Z,2.20
2019-01-19T15:26:31.918Z,2.75
2019-01-19T15:29:13.182Z,2.50
2019-01-19T15:31:54.255Z,4.47
2019-01-19T15:34:34.779Z,2.72
2019-01-19T15:37:15.568Z,1.90
2019-01-19T15:39:56.787Z,2.70
2019-01-19T15:42:37.983Z,2.25
2019-01-19T15:45:19.906Z,3.20
2019-01-19T15:48:01.224Z,2.17
2019-01-19T15:50:42.847Z,2.10
2019-01-19T15:53:24.235Z,2.25
2019-01-19T15:56:05.553Z,4.05
2019-01-19T16:01:52.099Z,1.85
2019-01-19T16:04:33.274Z,3.42
2019-01-19T16:07:14.147Z,3.77
2019-01-19T16:09:55.039Z,2.92
2019-01-19T16:12:36.332Z,2.30
2019-01-19T16:17:59.996Z,2.80
2019-01-19T16:27:48.299Z,3.40
2019-01-19T16:30:40.788Z,2.15
2019-01-19T16:33:42.464Z,1.80
2019-01-19T16:39:38.987Z,2.95
2019-01-19T16:42:46.687Z,3.35
2019-01-19T16:45:39.367Z,3.30
2019-01-19T16:48:46.888Z,3.50
2019-01-19T16:51:55.786Z,4.05
2019-01-19T16:55:03.274Z,4.72
2019-01-19T16:57:58.871Z,3.25
2019-01-19T17:01:06.531Z,3.70
2019-01-19T17:04:14.795Z,3.95
2019-01-19T17:07:22.235Z,4.15
2019-01-19T17:10:29.683Z,3.12
2019-01-19T17:13:37.195Z,3.72
2019-01-19T17:16:44.516Z,3.15
2019-01-19T17:19:52.025Z,4.25
2019-01-19T17:22:59.726Z,3.55
2019-01-19T17:26:07.400Z,3.35
2019-01-19T17:29:15.092Z,3.08
2019-01-19T17:32:10.398Z,4.22
2019-01-19T17:35:12.976Z,3.02
2019-01-19T17:38:20.391Z,5.08
2019-01-19T17:41:27.963Z,2.90
2019-01-19T17:44:35.964Z,3.00
2019-01-19T17:47:31.173Z,3.87
2019-01-19T17:50:38.639Z,3.27
2019-01-19T17:53:46.167Z,2.67
2019-01-19T17:56:53.477Z,4.70
2019-01-19T18:00:01.252Z,4.45
2019-01-19T18:03:08.563Z,3.27
2019-01-19T18:05:49.409Z,2.98
2019-01-19T18:08:30.080Z,4.10
2019-01-19T18:13:53.116Z,4.30
2019-01-19T18:16:52.504Z,4.00
2019-01-19T18:19:54.669Z,3.35
2019-01-19T18:22:54.156Z,4.87
2019-01-19T18:25:34.775Z,2.55
2019-01-19T18:28:15.792Z,2.75
2019-01-19T18:30:56.435Z,5.70
2019-01-19T18:33:37.022Z,4.85
2019-01-19T18:36:18.135Z,3.65
2019-01-19T18:38:59.552Z,7.35
2019-01-19T18:42:05.948Z,4.33
2019-01-19T18:45:13.550Z,5.35
2019-01-19T18:48:05.869Z,4.95
2019-01-19T18:50:59.405Z,3.72
2019-01-19T18:54:08.113Z,5.30
2019-01-19T18:57:15.879Z,5.37
2019-01-19T19:00:02.245Z,7.65
2019-01-19T19:03:10.035Z,5.30
2019-01-19T19:09:48.583Z,4.42
2019-01-19T19:12:56.043Z,5.00
2019-01-19T19:16:03.907Z,7.95
2019-01-19T19:19:11.358Z,4.53
2019-01-19T19:22:19.024Z,3.42
2019-01-19T19:25:21.676Z,6.30
2019-01-19T19:31:58.748Z,8.00
2019-01-19T19:35:06.163Z,5.83
2019-01-19T19:38:05.728Z,5.35
2019-01-19T19:40:47.099Z,4.25
2019-01-19T19:43:47.720Z,5.25
2019-01-19T19:49:33.103Z,5.30
2019-01-19T19:52:14.523Z,5.33
2019-01-19T19:54:55.852Z,6.35
2019-01-19T19:57:37.195Z,5.78
2019-01-19T20:03:37.665Z,5.30
2019-01-19T20:09:20.189Z,3.72
2019-01-19T20:14:57.956Z,4.55
2019-01-19T20:17:38.799Z,5.28
2019-01-19T20:20:20.471Z,3.47
2019-01-19T20:23:01.635Z,6.87
2019-01-19T20:25:42.398Z,6.97
2019-01-19T20:28:23.225Z,6.80
2019-01-19T20:31:04.319Z,4.40
2019-01-19T20:36:34.444Z,5.95
2019-01-19T20:39:15.429Z,5.42
2019-01-19T20:41:55.151Z,4.47
2019-01-19T20:44:43.372Z,4.95
2019-01-19T20:47:31.961Z,5.40
2019-01-19T20:50:20.187Z,5.60
2019-01-19T20:53:09.068Z,4.95
2019-01-19T20:55:58.787Z,6.22
2019-01-19T20:58:47.393Z,7.00
2019-01-19T21:01:36.234Z,4.65
2019-01-19T21:04:24.795Z,3.55
2019-01-19T21:07:13.111Z,4.95
2019-01-19T21:10:01.676Z,7.28
2019-01-19T21:12:31.143Z,5.47
2019-01-19T21:15:00.352Z,5.15
2019-01-19T21:17:29.700Z,5.62
2019-01-19T21:19:58.829Z,4.75
2019-01-19T21:22:28.928Z,3.98
2019-01-19T21:24:58.322Z,4.35
2019-01-19T21:27:27.790Z,5.53
2019-01-19T21:29:56.906Z,5.50
2019-01-19T21:32:26.627Z,5.05
2019-01-19T21:34:55.896Z,7.85
2019-01-19T21:37:25.695Z,5.25
2019-01-19T21:39:54.822Z,6.22
2019-01-19T21:42:24.355Z,7.33
2019-01-19T21:44:53.481Z,6.08
2019-01-19T21:47:23.220Z,3.45
2019-01-19T21:49:52.667Z,5.40
2019-01-19T21:52:21.835Z,5.70
2019-01-19T21:54:52.383Z,3.27
2019-01-19T21:57:21.555Z,5.20
2019-01-19T21:59:50.671Z,4.75
2019-01-19T22:02:20.342Z,4.33
2019-01-19T22:04:49.996Z,4.95
2019-01-19T22:07:19.380Z,6.47
2019-01-19T22:09:49.162Z,7.28
2019-01-19T22:12:18.689Z,4.00
2019-01-19T22:14:48.199Z,7.15
2019-01-19T22:17:17.680Z,5.50
2019-01-19T22:19:47.391Z,4.85
2019-01-19T22:22:16.815Z,8.15
2019-01-19T22:24:46.010Z,6.67
2019-01-19T22:27:18.245Z,7.03
2019-01-19T22:29:47.947Z,6.15
2019-01-19T22:32:17.667Z,5.50
2019-01-19T22:34:47.442Z,6.00
2019-01-19T22:37:16.579Z,3.33
2019-01-19T22:39:46.043Z,6.53
2019-01-19T22:42:15.486Z,5.00
2019-01-19T22:44:44.903Z,5.00
2019-01-19T22:47:14.032Z,4.95
2019-01-19T22:49:43.555Z,4.60
2019-01-19T22:52:13.315Z,7.00
2019-01-19T22:54:42.822Z,7.50
2019-01-19T22:57:12.281Z,6.42
2019-01-19T22:59:41.515Z,11.43
2019-01-19T23:02:12.548Z,5.25
2019-01-19T23:04:42.199Z,5.20
2019-01-19T23:07:11.397Z,8.73
2019-01-19T23:09:41.172Z,7.90
2019-01-19T23:12:10.838Z,3.72
2019-01-19T23:14:40.418Z,5.33
2019-01-19T23:17:09.540Z,4.28
2019-01-19T23:19:39.039Z,5.47
2019-01-19T23:22:08.197Z,4.28
2019-01-19T23:24:37.943Z,5.55
2019-01-19T23:27:07.707Z,5.33
2019-01-19T23:29:37.118Z,5.67
2019-01-19T23:32:06.852Z,6.22
2019-01-19T23:34:36.806Z,4.42
2019-01-19T23:37:06.498Z,4.83
2019-01-19T23:39:35.664Z,5.37
2019-01-19T23:42:05.124Z,3.77
2019-01-19T23:44:34.357Z,4.25
2019-01-19T23:47:03.876Z,4.78
2019-01-19T23:49:33.630Z,4.15
2019-01-19T23:52:02.831Z,3.67
2019-01-19T23:54:31.976Z,3.72
2019-01-19T23:57:01.655Z,2.95
2019-01-19T23:59:31.083Z,5.55
